createdAt,value
2022-12-19T00:00:06.967Z,0.00
2022-12-19T00:01:06.572Z,0.00
2022-12-19T00:02:06.668Z,0.00
2022-12-19T00:03:06.668Z,0.00
2022-12-19T00:04:08.110Z,0.00
2022-12-19T00:05:06.577Z,0.00
2022-12-19T00:06:06.593Z,0.00
2022-12-19T00:07:05.932Z,0.00
2022-12-19T00:08:15.484Z,0.00
2022-12-19T00:09:05.991Z,0.00
2022-12-19T00:10:06.583Z,0.00
2022-12-19T00:11:06.085Z,0.00
2022-12-19T00:12:06.092Z,0.00
2022-12-19T00:13:07.080Z,0.00
2022-12-19T00:14:07.090Z,0.00
2022-12-19T00:15:07.090Z,0.00
2022-12-19T00:16:06.293Z,0.00
2022-12-19T00:17:07.076Z,0.00
2022-12-19T00:18:07.081Z,0.00
2022-12-19T00:19:07.072Z,0.00
2022-12-19T00:20:06.394Z,0.00
2022-12-19T00:21:06.458Z,0.00
2022-12-19T00:22:11.038Z,0.00
2022-12-19T00:23:06.497Z,0.00
2022-12-19T00:24:15.771Z,0.00
2022-12-19T00:25:06.575Z,0.00
2022-12-19T00:26:06.621Z,0.00
2022-12-19T00:27:06.654Z,0.00
2022-12-19T00:28:06.682Z,0.00
2022-12-19T00:29:11.190Z,0.00
2022-12-19T00:30:06.782Z,0.00
2022-12-19T00:31:07.636Z,0.00
2022-12-19T00:32:06.864Z,0.00
2022-12-19T00:33:07.582Z,0.00
2022-12-19T00:34:06.910Z,0.00
2022-12-19T00:35:06.975Z,0.00
2022-12-19T00:36:07.001Z,0.00
2022-12-19T00:37:07.036Z,0.00
2022-12-19T00:38:07.071Z,0.00
2022-12-19T00:39:08.420Z,0.00
2022-12-19T00:40:07.160Z,0.00
2022-12-19T00:41:08.076Z,0.00
2022-12-19T00:42:07.240Z,0.00
2022-12-19T00:43:08.073Z,0.00
2022-12-19T00:44:07.314Z,0.00
2022-12-19T00:45:08.072Z,0.00
2022-12-19T00:46:08.156Z,0.00
2022-12-19T00:47:07.430Z,0.00
2022-12-19T00:48:08.083Z,0.00
2022-12-19T00:49:07.486Z,0.00
2022-12-19T00:50:07.520Z,0.00
2022-12-19T00:51:08.085Z,0.00
2022-12-19T00:52:07.623Z,0.00
2022-12-19T00:53:07.634Z,0.00
2022-12-19T00:54:07.947Z,0.00
2022-12-19T00:55:10.723Z,0.00
2022-12-19T00:56:07.745Z,0.00
2022-12-19T00:57:07.805Z,0.00
2022-12-19T00:58:07.812Z,0.00
2022-12-19T00:59:07.877Z,0.00
2022-12-19T01:00:07.898Z,0.00
2022-12-19T01:01:08.617Z,0.00
2022-12-19T01:02:08.662Z,0.00
2022-12-19T01:03:08.627Z,0.00
2022-12-19T01:05:08.117Z,0.00
2022-12-19T01:06:08.120Z,0.00
2022-12-19T01:07:09.073Z,0.00
2022-12-19T01:08:08.193Z,0.00
2022-12-19T01:09:09.071Z,0.00
2022-12-19T01:10:08.303Z,0.00
2022-12-19T01:11:08.298Z,0.00
2022-12-19T01:12:08.355Z,0.00
2022-12-19T01:13:08.374Z,0.00
2022-12-19T01:14:09.079Z,0.00
2022-12-19T01:15:08.481Z,0.00
2022-12-19T01:16:09.118Z,0.00
2022-12-19T01:17:09.073Z,0.00
2022-12-19T01:18:09.075Z,0.00
2022-12-19T01:19:09.572Z,0.00
2022-12-19T01:20:08.668Z,0.00
2022-12-19T01:21:09.581Z,0.00
2022-12-19T01:22:09.589Z,0.00
2022-12-19T01:23:09.579Z,0.00
2022-12-19T01:24:09.571Z,0.00
2022-12-19T01:25:08.863Z,0.00
2022-12-19T01:26:08.866Z,0.00
2022-12-19T01:27:08.924Z,0.00
2022-12-19T01:28:08.976Z,0.00
2022-12-19T01:29:09.580Z,0.00
2022-12-19T01:30:09.575Z,0.00
2022-12-19T01:31:09.088Z,0.00
2022-12-19T01:32:09.163Z,0.00
2022-12-19T01:33:17.622Z,0.00
2022-12-19T01:34:09.164Z,0.00
2022-12-19T01:35:16.657Z,0.00
2022-12-19T01:36:09.267Z,0.00
2022-12-19T01:37:09.336Z,0.00
2022-12-19T01:38:09.327Z,0.00
2022-12-19T01:39:10.114Z,0.00
2022-12-19T01:40:09.388Z,0.00
2022-12-19T01:41:09.430Z,0.00
2022-12-19T01:42:09.485Z,0.00
2022-12-19T01:43:10.124Z,0.00
2022-12-19T01:44:09.546Z,0.00
2022-12-19T01:45:13.352Z,0.00
2022-12-19T01:46:10.654Z,0.00
2022-12-19T01:47:09.655Z,0.00
2022-12-19T01:48:09.696Z,0.00
2022-12-19T01:49:10.617Z,0.00
2022-12-19T01:50:09.804Z,0.00
2022-12-19T01:51:10.621Z,0.00
2022-12-19T01:52:10.653Z,0.00
2022-12-19T01:53:10.612Z,0.00
2022-12-19T01:54:09.930Z,0.00
2022-12-19T01:55:10.620Z,0.00
2022-12-19T01:56:09.987Z,0.00
2022-12-19T01:57:10.044Z,0.00
2022-12-19T01:58:10.594Z,0.00
2022-12-19T01:59:10.082Z,0.00
2022-12-19T02:00:11.093Z,0.00
2022-12-19T02:01:11.123Z,0.00
2022-12-19T02:02:10.338Z,0.00
2022-12-19T02:03:11.263Z,0.00
2022-12-19T02:04:10.259Z,0.00
2022-12-19T02:05:11.086Z,0.00
2022-12-19T02:06:11.089Z,0.00
2022-12-19T02:07:15.507Z,0.00
2022-12-19T02:08:10.420Z,0.00
2022-12-19T02:09:11.080Z,0.00
2022-12-19T02:10:10.490Z,0.00
2022-12-19T02:11:10.531Z,0.00
2022-12-19T02:12:10.602Z,0.00
2022-12-19T02:13:10.611Z,0.00
2022-12-19T02:14:10.645Z,0.00
2022-12-19T02:15:10.685Z,0.00
2022-12-19T02:16:10.771Z,0.00
2022-12-19T02:17:10.788Z,0.00
2022-12-19T02:18:11.589Z,0.00
2022-12-19T02:19:11.106Z,0.00
2022-12-19T02:20:10.880Z,0.00
2022-12-19T02:21:10.913Z,0.00
2022-12-19T02:22:16.118Z,0.00
2022-12-19T02:23:10.979Z,0.00
2022-12-19T02:24:11.603Z,0.00
2022-12-19T02:25:11.065Z,0.00
2022-12-19T02:26:12.097Z,0.00
2022-12-19T02:27:11.162Z,0.00
2022-12-19T02:28:11.178Z,0.00
2022-12-19T02:29:11.246Z,0.00
2022-12-19T02:30:11.263Z,0.00
2022-12-19T02:31:17.545Z,0.00
2022-12-19T02:32:11.395Z,0.00
2022-12-19T02:33:12.108Z,0.00
2022-12-19T02:34:12.109Z,0.00
2022-12-19T02:35:11.557Z,0.00
2022-12-19T02:36:12.093Z,0.00
2022-12-19T02:37:11.543Z,0.00
2022-12-19T02:38:12.839Z,0.00
2022-12-19T02:39:11.606Z,0.00
2022-12-19T02:40:12.596Z,0.00
2022-12-19T02:41:12.604Z,0.00
2022-12-19T02:42:11.743Z,0.00
2022-12-19T02:43:11.748Z,0.00
2022-12-19T02:44:12.603Z,0.00
2022-12-19T02:45:11.869Z,0.00
2022-12-19T02:46:12.690Z,0.00
2022-12-19T02:47:11.909Z,0.00
2022-12-19T02:48:17.618Z,0.00
2022-12-19T02:49:11.979Z,0.00
2022-12-19T02:50:12.045Z,0.00
2022-12-19T02:51:12.610Z,0.00
2022-12-19T02:52:12.107Z,0.00
2022-12-19T02:53:13.102Z,0.00
2022-12-19T02:54:12.200Z,0.00
2022-12-19T02:55:13.130Z,0.00
2022-12-19T02:56:13.113Z,0.00
2022-12-19T02:57:12.315Z,0.00
2022-12-19T02:58:12.329Z,0.00
2022-12-19T02:59:13.112Z,0.00
2022-12-19T03:00:12.409Z,0.00
2022-12-19T03:01:13.193Z,0.00
2022-12-19T03:02:12.603Z,0.00
2022-12-19T03:03:12.626Z,0.00
2022-12-19T03:04:13.112Z,0.00
2022-12-19T03:05:12.620Z,0.00
2022-12-19T03:06:12.631Z,0.00
2022-12-19T03:07:12.698Z,0.00
2022-12-19T03:08:12.715Z,0.00
2022-12-19T03:09:12.753Z,0.00
2022-12-19T03:10:13.630Z,0.00
2022-12-19T03:11:12.824Z,0.00
2022-12-19T03:12:17.298Z,0.00
2022-12-19T03:13:12.906Z,0.00
2022-12-19T03:14:13.620Z,0.00
2022-12-19T03:15:12.984Z,0.00
2022-12-19T03:16:13.040Z,0.00
2022-12-19T03:17:13.079Z,0.00
2022-12-19T03:18:13.092Z,0.00
2022-12-19T03:19:13.140Z,0.00
2022-12-19T03:20:13.175Z,0.00
2022-12-19T03:21:14.177Z,0.00
2022-12-19T03:22:13.277Z,0.00
2022-12-19T03:23:14.174Z,0.00
2022-12-19T03:24:13.348Z,0.00
2022-12-19T03:25:13.367Z,0.00
2022-12-19T03:26:14.123Z,0.00
2022-12-19T03:27:14.212Z,0.00
2022-12-19T03:28:13.503Z,0.00
2022-12-19T03:29:14.217Z,0.00
2022-12-19T03:30:13.553Z,0.00
2022-12-19T03:31:13.652Z,0.00
2022-12-19T03:32:13.661Z,0.00
2022-12-19T03:33:14.624Z,0.00
2022-12-19T03:34:14.625Z,0.00
2022-12-19T03:35:14.627Z,0.00
2022-12-19T03:36:13.781Z,0.00
2022-12-19T03:37:13.852Z,0.00
2022-12-19T03:38:13.883Z,0.00
2022-12-19T03:39:13.902Z,0.00
2022-12-19T03:40:14.619Z,0.00
2022-12-19T03:41:14.626Z,0.00
2022-12-19T03:42:14.051Z,0.00
2022-12-19T03:43:14.061Z,0.00
2022-12-19T03:44:14.627Z,0.00
2022-12-19T03:45:14.227Z,0.00
2022-12-19T03:46:14.262Z,0.00
2022-12-19T03:47:14.247Z,0.00
2022-12-19T03:48:14.246Z,0.00
2022-12-19T03:49:15.126Z,0.00
2022-12-19T03:50:14.349Z,0.00
2022-12-19T03:51:15.124Z,0.00
2022-12-19T03:52:14.405Z,0.00
2022-12-19T03:53:15.137Z,0.00
2022-12-19T03:54:14.505Z,0.00
2022-12-19T03:55:14.517Z,0.00
2022-12-19T03:56:14.551Z,0.00
2022-12-19T03:57:14.614Z,0.00
2022-12-19T03:58:33.661Z,0.00
2022-12-19T03:59:14.693Z,0.00
2022-12-19T04:00:14.707Z,0.00
2022-12-19T04:01:14.816Z,0.00
2022-12-19T04:02:15.761Z,0.00
2022-12-19T04:03:15.704Z,0.00
2022-12-19T04:04:14.885Z,0.00
2022-12-19T04:05:14.895Z,0.00
2022-12-19T04:06:14.942Z,0.00
2022-12-19T04:07:15.017Z,0.00
2022-12-19T04:08:15.009Z,0.00
2022-12-19T04:09:20.692Z,0.00
2022-12-19T04:10:15.121Z,0.00
2022-12-19T04:11:15.675Z,0.00
2022-12-19T04:12:15.195Z,0.00
2022-12-19T04:13:16.173Z,0.00
2022-12-19T04:14:15.260Z,0.00
2022-12-19T04:15:16.163Z,0.00
2022-12-19T04:16:16.199Z,0.00
2022-12-19T04:17:15.380Z,0.00
2022-12-19T04:18:16.162Z,0.00
2022-12-19T04:19:16.173Z,0.00
2022-12-19T04:20:15.497Z,0.00
2022-12-19T04:21:15.536Z,0.00
2022-12-19T04:22:16.171Z,0.00
2022-12-19T04:23:16.163Z,0.00
2022-12-19T04:24:16.172Z,0.00
2022-12-19T04:25:15.696Z,0.00
2022-12-19T04:26:16.664Z,0.00
2022-12-19T04:27:15.766Z,0.00
2022-12-19T04:28:16.664Z,0.00
2022-12-19T04:29:15.827Z,0.00
2022-12-19T04:30:15.887Z,0.00
2022-12-19T04:31:16.698Z,0.00
2022-12-19T04:32:15.971Z,0.00
2022-12-19T04:33:16.696Z,0.00
2022-12-19T04:34:16.674Z,0.00
2022-12-19T04:35:16.037Z,0.00
2022-12-19T04:36:16.075Z,0.00
2022-12-19T04:37:16.155Z,0.00
2022-12-19T04:38:16.680Z,0.00
2022-12-19T04:39:17.172Z,0.00
2022-12-19T04:40:16.297Z,0.00
2022-12-19T04:41:17.174Z,0.00
2022-12-19T04:42:17.167Z,0.00
2022-12-19T04:43:16.372Z,0.00
2022-12-19T04:44:17.165Z,0.00
2022-12-19T04:45:17.164Z,0.00
2022-12-19T04:46:16.535Z,0.00
2022-12-19T04:47:17.174Z,0.00
2022-12-19T04:48:16.569Z,0.00
2022-12-19T04:49:17.172Z,0.00
2022-12-19T04:50:17.167Z,0.00
2022-12-19T04:51:16.665Z,0.00
2022-12-19T04:52:16.724Z,0.00
2022-12-19T04:53:16.749Z,0.00
2022-12-19T04:54:17.666Z,0.00
2022-12-19T04:55:17.667Z,0.00
2022-12-19T04:56:16.854Z,0.00
2022-12-19T04:57:16.933Z,0.00
2022-12-19T04:58:21.643Z,0.00
2022-12-19T04:59:16.961Z,0.00
2022-12-19T05:00:17.005Z,0.00
2022-12-19T05:01:17.127Z,0.00
2022-12-19T05:02:17.216Z,0.00
2022-12-19T05:03:17.190Z,0.00
2022-12-19T05:04:17.163Z,0.00
2022-12-19T05:05:17.200Z,0.00
2022-12-19T05:06:17.264Z,0.00
2022-12-19T05:07:18.169Z,0.00
2022-12-19T05:08:18.169Z,0.00
2022-12-19T05:09:18.176Z,0.00
2022-12-19T05:10:18.171Z,0.00
2022-12-19T05:11:19.789Z,0.00
2022-12-19T05:12:17.503Z,0.00
2022-12-19T05:13:18.183Z,0.00
2022-12-19T05:14:18.169Z,0.00
2022-12-19T05:15:18.163Z,0.00
2022-12-19T05:16:18.257Z,0.00
2022-12-19T05:17:17.692Z,0.00
2022-12-19T05:18:18.677Z,0.00
2022-12-19T05:19:17.764Z,0.00
2022-12-19T05:20:17.782Z,0.00
2022-12-19T05:21:18.662Z,0.00
2022-12-19T05:22:18.676Z,0.00
2022-12-19T05:23:18.662Z,0.00
2022-12-19T05:24:17.969Z,0.00
2022-12-19T05:25:18.681Z,0.00
2022-12-19T05:26:18.680Z,0.00
2022-12-19T05:27:18.677Z,0.00
2022-12-19T05:28:18.083Z,0.00
2022-12-19T05:29:18.192Z,0.00
2022-12-19T05:30:18.168Z,0.00
2022-12-19T05:31:18.231Z,0.00
2022-12-19T05:32:18.233Z,0.00
2022-12-19T05:33:18.290Z,0.00
2022-12-19T05:34:18.334Z,0.00
2022-12-19T05:35:18.377Z,0.00
2022-12-19T05:36:19.158Z,0.00
2022-12-19T05:37:19.160Z,0.00
2022-12-19T05:38:18.495Z,0.00
2022-12-19T05:39:19.176Z,0.00
2022-12-19T05:40:18.550Z,0.00
2022-12-19T05:41:19.178Z,0.00
2022-12-19T05:42:19.166Z,0.00
2022-12-19T05:43:18.697Z,0.00
2022-12-19T05:44:19.657Z,0.00
2022-12-19T05:45:18.763Z,0.00
2022-12-19T05:46:19.679Z,0.00
2022-12-19T05:47:19.680Z,0.00
2022-12-19T05:48:18.848Z,0.00
2022-12-19T05:49:18.929Z,0.00
2022-12-19T05:50:18.941Z,0.00
2022-12-19T05:51:18.990Z,0.00
2022-12-19T05:52:19.013Z,0.00
2022-12-19T05:53:23.313Z,0.00
2022-12-19T05:54:19.110Z,0.00
2022-12-19T05:55:19.119Z,0.00
2022-12-19T05:56:19.187Z,0.00
2022-12-19T05:57:19.208Z,0.00
2022-12-19T05:58:19.249Z,0.00
2022-12-19T05:59:19.276Z,0.00
2022-12-19T06:00:19.346Z,0.00
2022-12-19T06:01:19.393Z,0.00
2022-12-19T06:02:19.498Z,0.00
2022-12-19T06:03:20.243Z,0.00
2022-12-19T06:04:19.496Z,0.00
2022-12-19T06:05:19.516Z,0.00
2022-12-19T06:06:19.595Z,0.00
2022-12-19T06:07:21.367Z,0.00
2022-12-19T06:08:19.624Z,0.00
2022-12-19T06:09:20.666Z,0.00
2022-12-19T06:10:19.704Z,0.00
2022-12-19T06:11:19.775Z,0.00
2022-12-19T06:12:19.782Z,0.00
2022-12-19T06:13:24.819Z,0.00
2022-12-19T06:14:19.865Z,0.00
2022-12-19T06:15:19.900Z,0.00
2022-12-19T06:16:20.013Z,0.00
2022-12-19T06:17:20.671Z,0.00
2022-12-19T06:18:20.046Z,0.00
2022-12-19T06:19:20.061Z,0.00
2022-12-19T06:20:20.107Z,0.00
2022-12-19T06:21:20.143Z,0.00
2022-12-19T06:22:20.175Z,0.00
2022-12-19T06:23:20.247Z,0.00
2022-12-19T06:24:20.256Z,0.00
2022-12-19T06:25:20.288Z,0.00
2022-12-19T06:26:20.616Z,0.00
2022-12-19T06:27:20.391Z,0.00
2022-12-19T06:28:20.404Z,0.00
2022-12-19T06:29:20.440Z,0.00
2022-12-19T06:30:20.520Z,0.00
2022-12-19T06:31:20.601Z,0.00
2022-12-19T06:32:20.580Z,0.00
2022-12-19T06:33:20.603Z,0.00
2022-12-19T06:34:47.012Z,0.00
2022-12-19T06:35:20.684Z,0.00
2022-12-19T06:36:20.722Z,0.00
2022-12-19T06:37:20.756Z,0.00
2022-12-19T06:38:21.663Z,0.00
2022-12-19T06:39:20.872Z,0.00
2022-12-19T06:40:20.894Z,0.00
2022-12-19T06:41:20.935Z,0.00
2022-12-19T06:42:21.658Z,0.00
2022-12-19T06:43:21.679Z,0.00
2022-12-19T06:44:21.056Z,0.00
2022-12-19T06:45:21.091Z,0.00
2022-12-19T06:46:21.655Z,0.00
2022-12-19T06:47:21.149Z,0.00
2022-12-19T06:48:21.182Z,0.00
2022-12-19T06:49:21.245Z,0.00
2022-12-19T06:50:21.286Z,0.00
2022-12-19T06:51:21.310Z,0.00
2022-12-19T06:52:21.382Z,0.00
2022-12-19T06:53:21.376Z,0.00
2022-12-19T06:54:21.419Z,0.00
2022-12-19T06:55:21.464Z,0.00
2022-12-19T06:56:21.498Z,0.00
2022-12-19T06:57:21.568Z,0.00
2022-12-19T06:58:24.221Z,0.00
2022-12-19T06:59:21.619Z,0.00
2022-12-19T08:13:46.242Z,22.50
2022-12-19T08:14:31.584Z,28.13
2022-12-19T08:15:31.643Z,28.13
2022-12-19T08:16:37.297Z,28.13
2022-12-19T08:17:31.737Z,28.13
2022-12-19T08:18:31.767Z,28.13
2022-12-19T08:19:32.698Z,28.13
2022-12-19T08:20:31.812Z,28.13
2022-12-19T08:21:31.864Z,28.13
2022-12-19T08:22:31.950Z,28.13
2022-12-19T08:23:31.962Z,28.13
2022-12-19T08:24:32.027Z,28.13
2022-12-19T08:25:32.019Z,28.13
2022-12-19T08:26:38.421Z,28.13
2022-12-19T08:27:32.090Z,28.13
2022-12-19T08:28:32.125Z,28.13
2022-12-19T08:29:32.204Z,28.13
2022-12-19T08:30:33.940Z,28.13
2022-12-19T08:31:33.203Z,28.13
2022-12-19T08:32:32.286Z,28.13
2022-12-19T08:33:32.332Z,33.75
2022-12-19T08:34:32.402Z,33.75
2022-12-19T08:35:35.194Z,33.75
2022-12-19T08:36:32.451Z,33.75
2022-12-19T08:37:33.197Z,33.75
2022-12-19T08:38:32.527Z,33.75
2022-12-19T08:39:32.593Z,33.75
2022-12-19T08:40:32.602Z,33.75
2022-12-19T08:41:32.657Z,33.75
2022-12-19T08:42:32.727Z,39.38
2022-12-19T08:43:33.696Z,39.38
2022-12-19T08:44:32.779Z,39.38
2022-12-19T08:45:33.698Z,39.38
2022-12-19T08:46:32.872Z,39.38
2022-12-19T08:47:32.932Z,45.00
2022-12-19T08:48:32.929Z,45.00
2022-12-19T08:49:33.704Z,45.00
2022-12-19T08:50:33.708Z,45.00
2022-12-19T08:51:33.058Z,45.00
2022-12-19T08:52:33.115Z,45.00
2022-12-19T08:53:33.163Z,45.00
2022-12-19T08:54:33.709Z,50.63
2022-12-19T08:55:34.208Z,50.63
2022-12-19T08:56:33.263Z,50.63
2022-12-19T08:57:33.302Z,50.63
2022-12-19T08:58:33.387Z,50.63
2022-12-19T08:59:33.381Z,50.63
2022-12-19T09:00:34.211Z,56.25
2022-12-19T09:01:34.355Z,56.25
2022-12-19T09:02:33.660Z,56.25
2022-12-19T09:03:44.943Z,56.25
2022-12-19T09:05:17.252Z,56.25
2022-12-19T09:06:05.394Z,61.88
2022-12-19T09:06:33.739Z,61.88
2022-12-19T09:07:33.715Z,61.88
2022-12-19T09:08:34.708Z,61.88
2022-12-19T09:09:34.721Z,67.50
2022-12-19T09:10:36.703Z,67.50
2022-12-19T09:11:33.914Z,67.50
2022-12-19T09:12:34.707Z,67.50
2022-12-19T09:13:34.706Z,67.50
2022-12-19T09:14:34.716Z,67.50
2022-12-19T09:15:34.701Z,67.50
2022-12-19T09:16:34.151Z,67.50
2022-12-19T09:17:34.148Z,67.50
2022-12-19T09:18:34.711Z,67.50
2022-12-19T09:19:35.219Z,67.50
2022-12-19T09:20:34.282Z,67.50
2022-12-19T09:21:35.199Z,73.13
2022-12-19T09:22:34.356Z,73.13
2022-12-19T09:23:34.384Z,73.13
2022-12-19T09:24:35.202Z,73.13
2022-12-19T09:25:35.202Z,67.50
2022-12-19T09:26:35.218Z,67.50
2022-12-19T09:28:01.371Z,61.88
2022-12-19T09:28:34.596Z,61.88
2022-12-19T09:29:35.768Z,61.88
2022-12-19T09:30:34.719Z,61.88
2022-12-19T09:31:35.703Z,61.88
2022-12-19T09:32:34.755Z,61.88
2022-12-19T09:33:41.245Z,61.88
2022-12-19T09:34:37.448Z,61.88
2022-12-19T09:35:34.920Z,61.88
2022-12-19T09:36:34.936Z,67.50
2022-12-19T09:37:34.996Z,67.50
2022-12-19T09:38:38.049Z,67.50
2022-12-19T09:39:35.723Z,67.50
2022-12-19T09:40:35.136Z,73.13
2022-12-19T09:41:35.138Z,67.50
2022-12-19T09:42:40.696Z,67.50
2022-12-19T09:43:41.096Z,61.88
2022-12-19T09:44:35.309Z,61.88
2022-12-19T09:45:35.354Z,67.50
2022-12-19T10:31:41.038Z,112.50
2022-12-19T10:32:41.791Z,112.50
2022-12-19T10:33:41.035Z,112.50
2022-12-19T10:34:41.432Z,112.50
2022-12-19T10:35:41.080Z,112.50
2022-12-19T10:37:25.332Z,112.50
2022-12-19T10:37:48.924Z,118.13
2022-12-19T10:38:48.770Z,118.13
2022-12-19T10:39:41.282Z,123.75
2022-12-19T10:40:41.291Z,123.75
2022-12-19T10:41:44.300Z,123.75
2022-12-19T11:00:45.509Z,146.25
2022-12-19T11:01:33.675Z,151.88
2022-12-19T11:02:33.679Z,151.88
2022-12-19T12:31:44.722Z,202.50
2022-12-19T12:31:48.874Z,196.88
2022-12-19T12:35:33.275Z,196.88
2022-12-19T12:35:34.263Z,196.88
2022-12-19T12:35:46.567Z,196.88
2022-12-19T12:35:57.124Z,196.88
2022-12-19T12:39:56.224Z,196.88
2022-12-19T12:40:56.237Z,196.88
2022-12-19T12:41:56.290Z,191.25
2022-12-19T12:42:57.015Z,191.25
2022-12-19T12:43:56.369Z,191.25
2022-12-19T12:44:56.450Z,185.63
2022-12-19T12:45:56.548Z,185.63
2022-12-19T12:46:56.494Z,185.63
2022-12-19T12:47:56.551Z,180.00
2022-12-19T13:03:10.276Z,157.50
2022-12-19T13:04:10.173Z,157.50
2022-12-19T13:05:10.215Z,157.50
2022-12-19T13:06:10.248Z,157.50
2022-12-19T13:07:10.292Z,157.50
2022-12-19T13:08:10.361Z,163.13
2022-12-19T13:09:10.432Z,157.50
2022-12-19T13:10:10.445Z,163.13
2022-12-19T13:11:10.473Z,163.13
2022-12-19T13:12:10.523Z,163.13
2022-12-19T13:13:14.601Z,163.13
2022-12-19T13:14:10.914Z,163.13
2022-12-19T13:15:10.632Z,163.13
2022-12-19T13:25:29.532Z,151.88
2022-12-19T13:26:29.489Z,151.88
2022-12-19T13:27:30.467Z,151.88
2022-12-19T13:28:29.586Z,151.88
2022-12-19T13:29:29.622Z,151.88
2022-12-19T13:30:29.710Z,151.88
2022-12-19T13:31:29.770Z,146.25
2022-12-19T13:32:29.755Z,146.25
2022-12-19T13:33:29.790Z,146.25
2022-12-19T13:34:29.836Z,146.25
2022-12-19T13:36:43.099Z,140.63
2022-12-19T13:39:50.712Z,140.63
2022-12-19T13:39:56.404Z,140.63
2022-12-19T13:39:56.783Z,140.63
2022-12-19T13:39:57.112Z,140.63
2022-12-19T13:40:32.679Z,140.63
2022-12-19T13:43:16.396Z,129.38
2022-12-19T13:44:16.410Z,129.38
2022-12-19T13:45:16.487Z,123.75
2022-12-19T13:46:16.556Z,123.75
2022-12-19T13:47:21.945Z,118.13
2022-12-19T13:48:16.607Z,118.13
2022-12-19T13:49:16.679Z,118.13
2022-12-19T13:50:17.472Z,118.13
2022-12-19T13:51:16.706Z,112.50
2022-12-19T13:52:16.745Z,106.88
2022-12-19T13:53:16.800Z,106.88
2022-12-19T13:54:16.897Z,106.88
2022-12-19T13:55:16.885Z,101.25
2022-12-19T13:56:16.968Z,101.25
2022-12-19T13:57:16.992Z,101.25
2022-12-19T13:58:17.011Z,101.25
2022-12-19T13:59:17.142Z,101.25
2022-12-19T14:00:17.099Z,101.25
2022-12-19T14:01:21.552Z,95.63
2022-12-19T14:02:17.341Z,95.63
2022-12-19T14:03:17.532Z,95.63
2022-12-19T14:04:17.363Z,95.63
2022-12-19T14:05:17.303Z,95.63
2022-12-19T14:06:19.626Z,95.63
2022-12-19T14:07:17.411Z,95.63
2022-12-19T14:08:17.434Z,95.63
2022-12-19T14:10:02.926Z,95.63
2022-12-19T14:11:31.675Z,95.63
2022-12-19T14:11:42.881Z,95.63
2022-12-19T14:13:51.462Z,90.00
2022-12-19T14:13:59.481Z,90.00
2022-12-19T14:14:22.082Z,90.00
2022-12-19T14:15:17.774Z,84.38
2022-12-19T14:16:17.887Z,84.38
2022-12-19T14:17:17.834Z,84.38
2022-12-19T14:18:43.064Z,78.75
2022-12-19T14:19:18.473Z,78.75
2022-12-19T14:22:01.692Z,78.75
2022-12-19T14:22:07.403Z,78.75
2022-12-19T14:22:25.215Z,78.75
2022-12-19T14:23:20.477Z,78.75
2022-12-19T14:24:18.137Z,78.75
2022-12-19T14:28:15.196Z,78.75
2022-12-19T14:28:18.784Z,78.75
2022-12-19T14:28:27.947Z,73.13
2022-12-19T14:28:29.557Z,73.13
2022-12-19T14:29:18.385Z,73.13
2022-12-19T14:30:30.951Z,67.50
2022-12-19T14:31:18.524Z,67.50
2022-12-19T14:33:39.227Z,61.88
2022-12-19T14:33:44.256Z,67.50
2022-12-19T14:35:04.022Z,61.88
2022-12-19T14:36:07.810Z,61.88
2022-12-19T14:36:25.568Z,56.25
2022-12-19T14:37:54.330Z,56.25
2022-12-19T14:39:20.322Z,56.25
2022-12-19T14:39:25.206Z,56.25
2022-12-19T14:40:18.830Z,56.25
2022-12-19T14:41:18.864Z,56.25
2022-12-19T14:42:18.939Z,56.25
2022-12-19T14:49:58.008Z,50.63
2022-12-19T14:52:25.320Z,50.63
2022-12-19T14:52:34.687Z,50.63
2022-12-19T14:53:51.255Z,50.63
2022-12-19T14:54:02.054Z,50.63
2022-12-19T14:54:03.652Z,45.00
2022-12-19T14:54:04.065Z,45.00
2022-12-19T14:54:08.840Z,39.38
2022-12-19T14:54:15.326Z,45.00
2022-12-19T14:54:40.849Z,39.38
2022-12-19T14:54:48.291Z,39.38
2022-12-19T14:56:12.271Z,33.75
2022-12-19T14:56:40.285Z,33.75
2022-12-19T14:57:50.662Z,33.75
2022-12-19T14:58:52.801Z,28.13
2022-12-19T14:59:19.708Z,28.13
2022-12-19T15:01:07.854Z,28.13
2022-12-19T15:01:23.190Z,28.13
2022-12-19T15:02:27.938Z,22.50
2022-12-19T15:03:20.078Z,22.50
2022-12-19T15:04:50.609Z,22.50
2022-12-19T15:05:19.922Z,22.50
2022-12-19T15:07:07.695Z,22.50
2022-12-19T15:07:20.056Z,16.88
2022-12-19T16:31:19.714Z,0.00
2022-12-19T16:32:19.659Z,0.00
2022-12-19T16:33:19.830Z,0.00
2022-12-19T16:34:19.738Z,0.00
2022-12-19T16:35:34.374Z,0.00
2022-12-19T16:36:19.818Z,0.00
2022-12-19T16:37:20.489Z,0.00
2022-12-19T16:38:19.875Z,0.00
2022-12-19T16:39:19.967Z,0.00
2022-12-19T16:40:19.964Z,0.00
2022-12-19T16:41:19.995Z,0.00
2022-12-19T16:42:20.044Z,0.00
2022-12-19T16:43:20.932Z,0.00
2022-12-19T16:44:20.161Z,0.00
2022-12-19T16:45:20.164Z,0.00
2022-12-19T16:46:20.293Z,0.00
2022-12-19T16:47:21.000Z,0.00
2022-12-19T16:48:20.264Z,0.00
2022-12-19T16:49:20.337Z,0.00
2022-12-19T16:50:20.364Z,0.00
2022-12-19T16:51:20.406Z,0.00
2022-12-19T16:52:20.471Z,0.00
2022-12-19T16:53:20.473Z,0.00
2022-12-19T16:54:20.499Z,0.00
2022-12-19T16:55:20.551Z,0.00
2022-12-19T16:56:20.577Z,0.00
2022-12-19T16:57:20.658Z,0.00
2022-12-19T16:58:20.679Z,0.00
2022-12-19T16:59:20.704Z,0.00
2022-12-19T17:00:20.740Z,0.00
2022-12-19T17:01:20.888Z,0.00
2022-12-19T17:02:20.967Z,0.00
2022-12-19T17:03:21.038Z,0.00
2022-12-19T17:04:20.899Z,0.00
2022-12-19T17:05:21.436Z,0.00
2022-12-19T17:08:44.121Z,0.00
2022-12-19T17:09:44.084Z,0.00
2022-12-19T17:10:44.126Z,0.00
2022-12-19T17:11:44.165Z,0.00
2022-12-19T17:15:17.300Z,0.00
2022-12-19T17:16:18.151Z,0.00
2022-12-19T17:19:51.775Z,0.00
2022-12-19T17:20:51.810Z,0.00
2022-12-19T18:34:07.191Z,0.00
2022-12-19T18:35:01.315Z,0.00
2022-12-19T18:36:00.696Z,0.00
2022-12-19T18:37:00.706Z,0.00
2022-12-19T18:38:00.750Z,0.00
2022-12-19T18:39:01.303Z,0.00
2022-12-19T18:40:00.837Z,0.00
2022-12-19T18:41:01.809Z,0.00
2022-12-19T18:42:00.905Z,0.00
2022-12-19T18:43:01.806Z,0.00
2022-12-19T18:44:00.959Z,0.00
2022-12-19T18:45:01.030Z,0.00
2022-12-19T18:46:01.091Z,0.00
2022-12-19T18:47:01.081Z,0.00
2022-12-19T18:48:01.819Z,0.00
2022-12-19T18:49:01.196Z,0.00
2022-12-19T19:00:39.640Z,0.00
2022-12-19T19:01:40.399Z,0.00
2022-12-19T19:02:39.897Z,0.00
2022-12-19T19:03:39.853Z,0.00
2022-12-19T19:04:39.758Z,0.00
2022-12-19T19:05:39.819Z,0.00
2022-12-19T19:06:43.604Z,0.00
2022-12-19T19:07:39.895Z,0.00
2022-12-19T19:08:39.942Z,0.00
2022-12-19T19:09:40.018Z,0.00
2022-12-19T19:10:39.996Z,0.00
2022-12-19T19:11:40.829Z,0.00
2022-12-19T19:12:40.100Z,0.00
2022-12-19T19:13:40.101Z,0.00
2022-12-19T19:14:40.214Z,0.00
2022-12-19T19:15:40.217Z,0.00
2022-12-19T19:16:40.463Z,0.00
2022-12-19T19:17:40.256Z,0.00
2022-12-19T19:18:40.320Z,0.00
2022-12-19T19:19:40.359Z,0.00
2022-12-19T19:20:41.328Z,0.00
2022-12-19T19:21:40.417Z,0.00
2022-12-19T19:22:40.471Z,0.00
2022-12-19T19:23:40.495Z,0.00
2022-12-19T19:24:40.573Z,0.00
2022-12-19T19:25:40.580Z,0.00
2022-12-19T19:26:40.636Z,0.00
2022-12-19T19:27:40.655Z,0.00
2022-12-19T19:28:40.703Z,0.00
2022-12-19T19:29:40.760Z,0.00
2022-12-19T19:30:40.864Z,0.00
2022-12-19T19:31:40.863Z,0.00
2022-12-19T19:32:40.846Z,0.00
2022-12-19T19:33:41.858Z,0.00
2022-12-19T19:34:40.955Z,0.00
2022-12-19T19:35:41.001Z,0.00
2022-12-19T19:36:41.003Z,0.00
2022-12-19T19:37:41.047Z,0.00
2022-12-19T19:38:41.093Z,0.00
2022-12-19T19:39:41.836Z,0.00
2022-12-19T19:40:41.201Z,0.00
2022-12-19T19:41:41.820Z,0.00
2022-12-19T19:42:41.820Z,0.00
2022-12-19T19:43:41.298Z,0.00
2022-12-19T19:44:41.363Z,0.00
2022-12-19T19:45:43.639Z,0.00
2022-12-19T19:46:41.548Z,0.00
2022-12-19T19:47:41.504Z,0.00
2022-12-19T19:48:41.519Z,0.00
2022-12-19T19:49:41.572Z,0.00
2022-12-19T19:50:41.572Z,0.00
2022-12-19T19:51:41.637Z,0.00
2022-12-19T19:52:42.324Z,0.00
2022-12-19T19:53:41.680Z,0.00
2022-12-19T19:54:41.734Z,0.00
2022-12-19T19:55:42.331Z,0.00
2022-12-19T19:56:41.840Z,0.00
2022-12-19T19:57:42.821Z,0.00
2022-12-19T19:58:41.900Z,0.00
2022-12-19T19:59:42.007Z,0.00
2022-12-19T20:00:41.960Z,0.00
2022-12-19T20:01:42.183Z,0.00
2022-12-19T20:02:42.241Z,0.00
2022-12-19T20:03:42.220Z,0.00
2022-12-19T20:04:42.131Z,0.00
2022-12-19T20:05:42.166Z,0.00
2022-12-19T20:06:42.827Z,0.00
2022-12-19T20:07:42.289Z,0.00
2022-12-19T20:08:42.281Z,0.00
2022-12-19T20:09:42.346Z,0.00
2022-12-19T20:10:42.406Z,0.00
2022-12-19T20:11:42.439Z,0.00
2022-12-19T20:12:42.450Z,0.00
2022-12-19T20:13:42.503Z,0.00
2022-12-19T20:14:42.561Z,0.00
2022-12-19T20:15:49.494Z,0.00